European Highlander — C6SN6 — position and weather

sailwx.info

Track history (hours):
 
Tides and Currents Weather Stations Pressure Air Temp Water Temp Dewpoint Dewpoint Depression Visibility Wind Speed Wind Dir Waves Ship Positions

European Highlander

Operator: P&O Irish Sea Ltd

Last reported at 2017-Aug-18 10:30 UTC. Time now 2017-Aug-18 10:51 UTC.
Position N 54°59' W 005°19'.

Length 161 m; draft 5.4 m.

Type: Passenger vessel. MMSI: 311404000.

Date/timePositionNaut miles runAvg speedWind from/ knotsBaromVisibWave heightAir tempDewpointWater temp
2017-Aug-18 10:30N 54°59' W 005°19'917.7
2017-Aug-18 10:00N 54°55' W 005°33'917.3
2017-Aug-18 09:30N 54°52' W 005°47'1 1.6
2017-Aug-18 08:57N 54°51' W 005°48'0 0.0
2017-Aug-18 08:27N 54°51' W 005°48'4 8.0
2017-Aug-18 08:01N 54°53' W 005°43'917.3
2017-Aug-18 07:30N 54°57' W 005°29'917.1
2017-Aug-18 07:00N 55°00' W 005°16'713.6
2017-Aug-18 06:27N 54°59' W 005°03'2 3.8
2017-Aug-18 06:00N 54°58' W 005°01'0 0.0
2017-Aug-18 05:30N 54°58' W 005°01'0 0.0
2017-Aug-18 05:00N 54°58' W 005°01'5 8.1
2017-Aug-18 04:23N 55°02' W 005°06'616.9
2017-Aug-18 04:01N 54°59' W 005°17'918.2
2017-Aug-18 03:31N 54°55' W 005°31'918.6
2017-Aug-18 03:00N 54°52' W 005°47'1 2.6
2017-Aug-18 02:27N 54°51' W 005°48'0 0.0
2017-Aug-18 02:00N 54°51' W 005°48'0 0.0
2017-Aug-18 01:30N 54°51' W 005°48'0 0.0
2017-Aug-18 01:01N 54°51' W 005°48'611.3
2017-Aug-18 00:31N 54°54' W 005°40'816.8
2017-Aug-18 00:01N 54°58' W 005°27'816.7
2017-Aug-17 23:31N 55°01' W 005°13'714.3
2017-Aug-17 23:01N 54°58' W 005°02'1 1.5
2017-Aug-17 22:26N 54°58' W 005°01'0 0.0
2017-Aug-17 21:56N 54°58' W 005°01'0 0.0
2017-Aug-17 21:26N 54°58' W 005°01'0 0.0
2017-Aug-17 20:55N 54°58' W 005°01'5 9.9
2017-Aug-17 20:25N 55°02' W 005°06'818.7
2017-Aug-17 20:00N 54°60' W 005°19'1019.8
2017-Aug-17 19:30N 54°55' W 005°35'916.2
2017-Aug-17 18:59N 54°51' W 005°48'0 0.4
2017-Aug-17 18:30N 54°51' W 005°48'0 0.0
2017-Aug-17 18:00N 54°51' W 005°48'0 0.0
2017-Aug-17 17:30N 54°51' W 005°48'611.9
2017-Aug-17 17:00N 54°54' W 005°39'1019.9
2017-Aug-17 16:30N 54°58' W 005°24'1020.2
2017-Aug-17 16:00N 55°02' W 005°07'510.2
2017-Aug-17 15:30N 54°58' W 005°01'0 0.0
2017-Aug-17 15:00N 54°58' W 005°01'0 0.0
2017-Aug-17 14:30N 54°58' W 005°01'4 7.6
2017-Aug-17 14:01N 55°01' W 005°05'918.4
2017-Aug-17 13:31N 54°58' W 005°20'1020.7
2017-Aug-17 13:01N 54°54' W 005°36'714.4
2017-Aug-17 12:30N 54°51' W 005°48'0 0.0
2017-Aug-17 11:53N 54°51' W 005°48'0 0.0
2017-Aug-17 11:30N 54°51' W 005°48'510.8
2017-Aug-17 11:00N 54°54' W 005°40'917.7
2017-Aug-17 10:30N 54°58' W 005°26'917.0
2017-Aug-17 10:00N 55°01' W 005°12'713.9
2017-Aug-17 09:30N 54°58' W 005°02'1 0.9
2017-Aug-17 08:49N 54°58' W 005°01'0 0.0
2017-Aug-17 08:30N 54°58' W 005°01'5 9.5
2017-Aug-17 07:59N 55°02' W 005°06'817.6
2017-Aug-17 07:30N 54°58' W 005°20'917.1
2017-Aug-17 07:00N 54°54' W 005°33'917.3
2017-Aug-17 06:31N 54°52' W 005°47'1 1.9
2017-Aug-17 05:59N 54°51' W 005°48'0 0.0
2017-Aug-17 05:29N 54°51' W 005°48'0 0.0
2017-Aug-17 05:01N 54°51' W 005°48'612.4
2017-Aug-17 04:30N 54°54' W 005°39'816.9
2017-Aug-17 04:00N 54°58' W 005°25'917.5
2017-Aug-17 03:30N 55°01' W 005°11'713.2
2017-Aug-17 03:00N 54°58' W 005°01'0 0.7
2017-Aug-17 02:30N 54°58' W 005°01'0 0.0
2017-Aug-17 02:00N 54°58' W 005°01'0 0.0
2017-Aug-17 01:30N 54°58' W 005°01'0 0.0
2017-Aug-17 01:00N 54°58' W 005°01'5 7.7
2017-Aug-17 00:22N 55°01' W 005°06'617.5
2017-Aug-17 00:00N 54°59' W 005°16'1020.0
2017-Aug-16 23:30N 54°55' W 005°32'919.1
2017-Aug-16 23:01N 54°52' W 005°48'1 1.4
2017-Aug-16 22:30N 54°51' W 005°48'0 0.0
2017-Aug-16 22:00N 54°51' W 005°48'0 0.0
2017-Aug-16 21:30N 54°51' W 005°48'0 0.0
2017-Aug-16 21:00N 54°51' W 005°48'4 8.5
2017-Aug-16 20:30N 54°53' W 005°42'1019.6
2017-Aug-16 20:01N 54°58' W 005°27'918.5
2017-Aug-16 19:31N 55°01' W 005°12'713.0
2017-Aug-16 19:00N 54°58' W 005°02'1 1.6
2017-Aug-16 18:28N 54°58' W 005°01'0 0.0
2017-Aug-16 17:55N 54°58' W 005°01'0 0.0
2017-Aug-16 17:30N 54°58' W 005°01'5 9.9
2017-Aug-16 17:00N 55°02' W 005°06'1019.7
2017-Aug-16 16:30N 54°57' W 005°21'1019.8
2017-Aug-16 16:00N 54°54' W 005°37'713.3
2017-Aug-16 15:30N 54°51' W 005°48'0 0.0
2017-Aug-16 14:53N 54°51' W 005°48'0 0.0
2017-Aug-16 14:23N 54°51' W 005°48'3 7.8
2017-Aug-16 14:00N 54°53' W 005°44'1019.2
2017-Aug-16 13:31N 54°57' W 005°29'1019.5
2017-Aug-16 13:00N 55°01' W 005°13'713.9
2017-Aug-16 12:30N 54°58' W 005°02'1 1.8
2017-Aug-16 12:00N 54°58' W 005°01'0 0.0
2017-Aug-16 11:30N 54°58' W 005°01'5 8.7
2017-Aug-16 10:56N 55°02' W 005°06'921.2
2017-Aug-16 10:30N 54°58' W 005°21'1020.6
2017-Aug-16 10:00N 54°53' W 005°37'713.4
2017-Aug-16 09:30N 54°51' W 005°48'0 0.0
2017-Aug-16 09:00N 54°51' W 005°48'0 0.0
2017-Aug-16 08:30N 54°51' W 005°48'4 8.2
2017-Aug-16 08:01N 54°53' W 005°42'917.5
2017-Aug-16 07:30N 54°57' W 005°29'917.2
2017-Aug-16 07:01N 55°01' W 005°15'714.1
2017-Aug-16 06:31N 54°59' W 005°03'2 3.5
2017-Aug-16 05:58N 54°58' W 005°01'0 0.0
2017-Aug-16 05:28N 54°58' W 005°01'0 0.0
2017-Aug-16 05:01N 54°58' W 005°01'5 9.8
2017-Aug-16 04:30N 55°02' W 005°06'815.6
2017-Aug-16 04:01N 54°59' W 005°19'917.5
2017-Aug-16 03:31N 54°55' W 005°32'917.9
2017-Aug-16 03:00N 54°52' W 005°47'1 2.2
2017-Aug-16 02:29N 54°51' W 005°48'0 0.0
2017-Aug-16 01:59N 54°51' W 005°48'0 0.0
2017-Aug-16 01:29N 54°51' W 005°48'0 0.0
2017-Aug-16 01:00N 54°51' W 005°48'5 9.4
2017-Aug-16 00:30N 54°53' W 005°41'816.7
2017-Aug-16 00:00N 54°57' W 005°28'816.7
2017-Aug-15 23:30N 55°01' W 005°15'713.9
2017-Aug-15 23:00N 54°59' W 005°03'2 3.8
2017-Aug-15 22:28N 54°58' W 005°01'0 0.0
2017-Aug-15 21:58N 54°58' W 005°01'0 0.0
2017-Aug-15 21:28N 54°58' W 005°01'0 0.0
2017-Aug-15 21:00N 54°58' W 005°01'5 9.4
2017-Aug-15 20:28N 55°02' W 005°07'817.5
2017-Aug-15 20:00N 54°59' W 005°20'917.4
2017-Aug-15 19:31N 54°55' W 005°33'816.8
2017-Aug-15 19:00N 54°52' W 005°47'1 2.3
2017-Aug-15 18:30N 54°51' W 005°48'0 0.0
2017-Aug-15 18:00N 54°51' W 005°48'0 0.0
2017-Aug-15 17:30N 54°51' W 005°48'4 7.6
2017-Aug-15 17:01N 54°53' W 005°43'918.3
2017-Aug-15 16:31N 54°57' W 005°28'918.3
2017-Aug-15 16:01N 55°01' W 005°14'713.9
2017-Aug-15 15:31N 54°59' W 005°02'1 1.9
2017-Aug-15 14:55N 54°58' W 005°01'0 0.0
2017-Aug-15 14:25N 54°58' W 005°01'510.0
2017-Aug-15 13:55N 55°02' W 005°06'819.3
2017-Aug-15 13:30N 54°58' W 005°19'1020.7
2017-Aug-15 13:00N 54°54' W 005°35'815.6
2017-Aug-15 12:31N 54°51' W 005°48'0 0.2
2017-Aug-15 11:56N 54°51' W 005°48'0 0.0
2017-Aug-15 11:30N 54°51' W 005°48'611.3
2017-Aug-15 11:00N 54°54' W 005°40'917.2
2017-Aug-15 10:30N 54°58' W 005°26'917.4
2017-Aug-15 10:00N 55°01' W 005°12'713.5
2017-Aug-15 09:30N 54°58' W 005°02'1 1.5
2017-Aug-15 09:00N 54°58' W 005°01'0 0.0
2017-Aug-15 08:30N 54°58' W 005°01'5 8.1
2017-Aug-15 07:53N 55°02' W 005°07'717.9
2017-Aug-15 07:30N 54°59' W 005°18'918.0
2017-Aug-15 07:00N 54°56' W 005°32'917.4
2017-Aug-15 06:29N 54°52' W 005°47'2 3.1
2017-Aug-15 06:00N 54°51' W 005°48'0 0.0
2017-Aug-15 05:30N 54°51' W 005°48'0 0.0
2017-Aug-15 05:01N 54°51' W 005°48'612.0
2017-Aug-15 04:30N 54°54' W 005°39'1020.2
2017-Aug-15 04:00N 54°59' W 005°24'918.6
2017-Aug-15 03:30N 55°02' W 005°08'610.0
2017-Aug-15 02:56N 54°58' W 005°01'0 0.0
2017-Aug-15 02:20N 54°58' W 005°01'0 0.0
2017-Aug-15 01:50N 54°58' W 005°01'0 0.0
2017-Aug-15 01:29N 54°58' W 005°01'0 0.0
2017-Aug-15 00:59N 54°58' W 005°01'5 9.0
2017-Aug-15 00:26N 55°02' W 005°06'819.1
2017-Aug-15 00:00N 54°59' W 005°20'1020.3
2017-Aug-14 23:30N 54°54' W 005°36'813.3
2017-Aug-14 22:56N 54°51' W 005°48'0 0.0
2017-Aug-14 22:29N 54°51' W 005°48'0 0.0
2017-Aug-14 21:56N 54°51' W 005°48'0 0.0
2017-Aug-14 21:29N 54°51' W 005°48'0 0.0
2017-Aug-14 20:59N 54°51' W 005°48'4 8.8
2017-Aug-14 20:31N 54°53' W 005°42'917.6
2017-Aug-14 20:01N 54°57' W 005°28'815.6
2017-Aug-14 19:31N 55°00' W 005°16'813.0
2017-Aug-14 18:56N 54°59' W 005°03'2 4.3
2017-Aug-14 18:30N 54°58' W 005°01'0 0.0
2017-Aug-14 18:00N 54°58' W 005°01'0 0.0
2017-Aug-14 17:30N 54°58' W 005°01'5 8.4
2017-Aug-14 16:55N 55°02' W 005°06'819.9
2017-Aug-14 16:30N 54°60' W 005°20'1019.5
2017-Aug-14 16:01N 54°56' W 005°36'816.7
2017-Aug-14 15:30N 54°51' W 005°48'0 0.4
2017-Aug-14 14:55N 54°51' W 005°48'0 0.0
2017-Aug-14 14:25N 54°51' W 005°48'511.5
2017-Aug-14 14:00N 54°54' W 005°41'1019.6
2017-Aug-14 13:30N 54°58' W 005°26'1020.0
2017-Aug-14 13:00N 55°02' W 005°10'612.6
2017-Aug-14 12:30N 54°58' W 005°01'0 0.0
2017-Aug-14 12:00N 54°58' W 005°01'0 0.1
2017-Aug-14 11:31N 54°58' W 005°01'611.4
2017-Aug-14 11:00N 55°01' W 005°09'817.1
2017-Aug-14 10:31N 54°57' W 005°22'917.9
2017-Aug-14 10:00N 54°54' W 005°36'714.8
2017-Aug-14 09:30N 54°51' W 005°48'0 0.1
2017-Aug-14 08:59N 54°51' W 005°48'0 0.0
2017-Aug-14 08:31N 54°51' W 005°48'612.6
2017-Aug-14 08:00N 54°55' W 005°39'1019.7
2017-Aug-14 07:30N 54°59' W 005°23'1215.9
2017-Aug-14 06:46N 54°59' W 005°03'2 5.7
2017-Aug-14 06:28N 54°58' W 005°01'0 0.0
2017-Aug-14 05:58N 54°58' W 005°01'0 0.0
2017-Aug-14 05:28N 54°58' W 005°01'0 0.0
2017-Aug-14 05:00N 54°58' W 005°01'5 9.2
2017-Aug-14 04:28N 55°02' W 005°06'919.9
2017-Aug-14 04:01N 54°58' W 005°21'1019.9
2017-Aug-14 03:31N 54°54' W 005°37'714.1
2017-Aug-14 03:01N 54°51' W 005°48'0 0.1
2017-Aug-14 02:28N 54°51' W 005°48'0 0.0
2017-Aug-14 01:58N 54°51' W 005°48'0 0.0
2017-Aug-14 01:28N 54°51' W 005°48'0 0.0
2017-Aug-14 00:58N 54°51' W 005°48'0 0.0
2017-Aug-14 00:25N 54°51' W 005°48'0 0.1
2017-Aug-14 00:00N 54°51' W 005°48'714.1
2017-Aug-13 23:30N 54°54' W 005°37'917.1
2017-Aug-13 23:00N 54°58' W 005°24'917.9
2017-Aug-13 22:30N 55°02' W 005°09'612.8
2017-Aug-13 22:00N 54°58' W 005°01'0 0.0
2017-Aug-13 21:20N 54°58' W 005°01'0 0.0
2017-Aug-13 20:59N 54°58' W 005°01'6 8.6
2017-Aug-13 20:21N 55°01' W 005°08'719.4
2017-Aug-13 20:01N 54°59' W 005°19'1020.0
2017-Aug-13 19:31N 54°55' W 005°34'917.2
2017-Aug-13 19:00N 54°51' W 005°48'0 0.2
2017-Aug-13 18:30N 54°51' W 005°48'0 0.0
2017-Aug-13 18:00N 54°51' W 005°48'0 0.0
2017-Aug-13 17:30N 54°51' W 005°48'612.6
2017-Aug-13 17:01N 54°54' W 005°39'918.3
2017-Aug-13 16:31N 54°59' W 005°25'917.1
2017-Aug-13 16:01N 55°01' W 005°11'7 7.5
2017-Aug-13 15:07N 54°58' W 005°01'0 0.0
2017-Aug-13 14:43N 54°58' W 005°01'0 0.1
2017-Aug-13 14:25N 54°58' W 005°01'511.6
2017-Aug-13 13:59N 55°02' W 005°07'919.2
2017-Aug-13 13:30N 54°57' W 005°21'1020.4
2017-Aug-13 13:00N 54°54' W 005°38'712.4
2017-Aug-13 12:29N 54°51' W 005°48'0 0.0
2017-Aug-13 11:59N 54°51' W 005°48'0 0.0
2017-Aug-13 11:31N 54°51' W 005°48'612.7
2017-Aug-13 11:00N 54°54' W 005°38'1019.7
2017-Aug-13 10:30N 54°59' W 005°23'1020.2
2017-Aug-13 10:00N 55°02' W 005°06'5 8.7
2017-Aug-13 09:25N 54°58' W 005°01'0 0.0
2017-Aug-13 08:55N 54°58' W 005°01'0 0.0
2017-Aug-13 08:30N 54°58' W 005°01'3 6.6
2017-Aug-13 08:00N 55°00' W 005°04'815.8
2017-Aug-13 07:30N 54°59' W 005°18'1020.6
2017-Aug-13 07:00N 54°54' W 005°34'917.1
2017-Aug-13 06:30N 54°51' W 005°48'0 0.6
2017-Aug-13 06:00N 54°51' W 005°48'0 0.0
2017-Aug-13 05:30N 54°51' W 005°48'0 0.0
2017-Aug-13 05:00N 54°51' W 005°48'0 0.0
2017-Aug-13 04:30N 54°51' W 005°48'0 0.0
2017-Aug-13 04:00N 54°51' W 005°48'0 0.0
2017-Aug-13 03:30N 54°51' W 005°48'0 0.0
2017-Aug-13 03:00N 54°51' W 005°48'0 0.0
2017-Aug-13 02:30N 54°51' W 005°48'0 0.0
2017-Aug-13 02:00N 54°51' W 005°48'0 0.0
2017-Aug-13 01:27N 54°51' W 005°48'0 0.0
2017-Aug-13 00:57N 54°51' W 005°48'0 0.0
2017-Aug-13 00:30N 54°51' W 005°48'0 0.0
2017-Aug-13 00:00N 54°51' W 005°48'0 0.0
2017-Aug-12 23:30N 54°51' W 005°48'0 0.0
2017-Aug-12 23:00N 54°51' W 005°48'0 0.0
2017-Aug-12 22:30N 54°51' W 005°48'0 0.0
2017-Aug-12 22:00N 54°51' W 005°48'0 0.0
2017-Aug-12 21:30N 54°51' W 005°48'0 0.0
2017-Aug-12 21:00N 54°51' W 005°48'5 9.7
2017-Aug-12 20:31N 54°53' W 005°41'816.5
2017-Aug-12 20:01N 54°57' W 005°28'816.0
2017-Aug-12 19:31N 55°00' W 005°15'713.4
2017-Aug-12 18:59N 54°59' W 005°03'2 3.3
2017-Aug-12 18:23N 54°58' W 005°01'0 0.0
2017-Aug-12 17:59N 54°58' W 005°01'0 0.0
2017-Aug-12 17:30N 54°58' W 005°01'5 9.3
2017-Aug-12 16:59N 55°02' W 005°06'918.3
2017-Aug-12 16:30N 54°58' W 005°20'917.7
2017-Aug-12 16:00N 54°55' W 005°35'816.4
2017-Aug-12 15:30N 54°51' W 005°48'1 1.1
2017-Aug-12 15:00N 54°51' W 005°48'0 0.0
2017-Aug-12 14:30N 54°51' W 005°48'5 9.9
2017-Aug-12 14:00N 54°54' W 005°41'917.5
2017-Aug-12 13:30N 54°57' W 005°27'816.9
2017-Aug-12 13:00N 55°01' W 005°14'713.3
2017-Aug-12 12:30N 54°59' W 005°03'1 2.8
2017-Aug-12 12:00N 54°58' W 005°01'0 0.0
2017-Aug-12 11:30N 54°58' W 005°01'510.4
2017-Aug-12 11:00N 55°02' W 005°07'816.4
2017-Aug-12 10:30N 54°58' W 005°20'918.0
2017-Aug-12 10:01N 54°54' W 005°34'816.8
2017-Aug-12 09:30N 54°51' W 005°48'0 0.4
2017-Aug-12 08:55N 54°51' W 005°48'0 0.0
2017-Aug-12 08:30N 54°51' W 005°48'612.4
2017-Aug-12 08:01N 54°54' W 005°39'917.1
2017-Aug-12 07:31N 54°58' W 005°25'917.0
2017-Aug-12 07:00N 55°01' W 005°12'713.4
2017-Aug-12 06:30N 54°58' W 005°01'0 0.8
2017-Aug-12 06:01N 54°58' W 005°01'0 0.0
2017-Aug-12 05:31N 54°58' W 005°01'0 0.0
2017-Aug-12 05:00N 54°58' W 005°01'5 8.5
2017-Aug-12 04:25N 55°02' W 005°06'819.8
2017-Aug-12 04:00N 54°59' W 005°20'1020.3
2017-Aug-12 03:30N 54°55' W 005°36'815.4
2017-Aug-12 03:00N 54°51' W 005°48'0 0.2
2017-Aug-12 02:30N 54°51' W 005°48'0 0.0
2017-Aug-12 02:00N 54°51' W 005°48'0 0.0
2017-Aug-12 01:30N 54°51' W 005°48'0 0.0
2017-Aug-12 01:00N 54°51' W 005°48'611.0
2017-Aug-12 00:30N 54°54' W 005°40'1019.2
2017-Aug-12 00:00N 54°58' W 005°25'1019.4
2017-Aug-11 23:30N 55°02' W 005°09'612.2
2017-Aug-11 23:01N 54°58' W 005°01'0 0.0
2017-Aug-11 22:29N 54°58' W 005°01'0 0.0
2017-Aug-11 21:59N 54°58' W 005°01'0 0.0
2017-Aug-11 21:29N 54°58' W 005°01'0 0.0
2017-Aug-11 20:59N 54°58' W 005°01'5 9.4
2017-Aug-11 20:27N 55°01' W 005°07'716.1
2017-Aug-11 20:00N 54°59' W 005°18'917.7
2017-Aug-11 19:30N 54°55' W 005°32'917.9
2017-Aug-11 19:00N 54°52' W 005°47'1 2.7
2017-Aug-11 18:30N 54°51' W 005°48'0 0.0
2017-Aug-11 18:00N 54°51' W 005°48'0 0.0
2017-Aug-11 17:30N 54°51' W 005°48'4 7.5
2017-Aug-11 17:00N 54°53' W 005°43'1020.7
2017-Aug-11 16:30N 54°58' W 005°26'1019.6
2017-Aug-11 16:00N 55°01' W 005°11'712.8
2017-Aug-11 15:29N 54°58' W 005°01'0 0.0
2017-Aug-11 15:00N 54°58' W 005°01'5 4.6
2017-Aug-11 13:55N 55°02' W 005°06'820.3
2017-Aug-11 13:30N 54°58' W 005°20'1020.3
2017-Aug-11 13:00N 54°54' W 005°36'815.1
2017-Aug-11 12:30N 54°51' W 005°48'0 0.0
2017-Aug-11 12:00N 54°51' W 005°48'0 0.4
2017-Aug-11 11:31N 54°51' W 005°48'917.4
2017-Aug-11 11:01N 54°55' W 005°35'1019.1
2017-Aug-11 10:31N 54°59' W 005°19'915.2
2017-Aug-11 09:53N 54°59' W 005°03'2 5.0
2017-Aug-11 09:30N 54°58' W 005°01'0 0.0
2017-Aug-11 09:01N 54°58' W 005°01'0 0.0
2017-Aug-11 08:31N 54°58' W 005°01'5 9.4
2017-Aug-11 07:59N 55°02' W 005°07'816.9
2017-Aug-11 07:30N 54°58' W 005°19'918.1
2017-Aug-11 07:00N 54°54' W 005°33'917.2
2017-Aug-11 06:30N 54°52' W 005°48'1 1.5
2017-Aug-11 05:58N 54°51' W 005°48'0 0.0
2017-Aug-11 05:28N 54°51' W 005°48'0 0.0
2017-Aug-11 05:00N 54°51' W 005°48'4 8.9
2017-Aug-11 04:31N 54°53' W 005°42'1020.0
2017-Aug-11 04:00N 54°58' W 005°26'918.8
2017-Aug-11 03:31N 55°01' W 005°11'713.5
2017-Aug-11 03:00N 54°58' W 005°01'0 0.1
2017-Aug-11 02:30N 54°58' W 005°01'0 0.0
2017-Aug-11 02:00N 54°58' W 005°01'0 0.0
2017-Aug-11 01:27N 54°58' W 005°01'0 0.1
2017-Aug-11 01:00N 54°58' W 005°01'612.1
2017-Aug-11 00:30N 55°01' W 005°10'917.7
2017-Aug-11 00:00N 54°57' W 005°23'918.2
2017-Aug-10 23:30N 54°53' W 005°38'612.9
2017-Aug-10 23:00N 54°51' W 005°48'0 0.0
2017-Aug-10 22:30N 54°51' W 005°48'0 0.0
2017-Aug-10 22:00N 54°51' W 005°48'0 0.0
2017-Aug-10 21:30N 54°51' W 005°48'0 0.0
2017-Aug-10 21:00N 54°51' W 005°48'510.9
2017-Aug-10 20:30N 54°54' W 005°40'816.1
2017-Aug-10 20:00N 54°57' W 005°27'816.5
2017-Aug-10 19:30N 55°01' W 005°14'713.1
2017-Aug-10 19:00N 54°59' W 005°03'2 3.9
2017-Aug-10 18:30N 54°58' W 005°01'0 0.0
2017-Aug-10 18:00N 54°58' W 005°01'0 0.0
2017-Aug-10 17:30N 54°58' W 005°01'5 8.9
2017-Aug-10 16:57N 55°02' W 005°06'920.4
2017-Aug-10 16:30N 54°58' W 005°21'1020.0
2017-Aug-10 16:00N 54°54' W 005°37'714.2
2017-Aug-10 15:30N 54°51' W 005°48'0 0.1
2017-Aug-10 15:00N 54°51' W 005°48'0 0.0
2017-Aug-10 14:31N 54°51' W 005°48'1414.4
2017-Aug-10 13:30N 54°58' W 005°26'918.0
2017-Aug-10 13:00N 55°01' W 005°11'713.6
2017-Aug-10 12:30N 54°58' W 005°01'0 0.0
2017-Aug-10 11:56N 54°58' W 005°01'0 0.0
2017-Aug-10 11:30N 54°58' W 005°01'611.5
2017-Aug-10 11:00N 55°01' W 005°08'1019.7
2017-Aug-10 10:30N 54°57' W 005°23'1121.2
2017-Aug-10 10:00N 54°53' W 005°40'5 9.4
2017-Aug-10 09:30N 54°51' W 005°48'0 0.0
2017-Aug-10 09:00N 54°51' W 005°48'0 0.1
2017-Aug-10 08:31N 54°51' W 005°48'714.6
2017-Aug-10 08:00N 54°55' W 005°37'816.2
2017-Aug-10 07:30N 54°58' W 005°24'917.0
2017-Aug-10 07:00N 55°01' W 005°11'612.5
2017-Aug-10 06:30N 54°58' W 005°01'0 0.5
2017-Aug-10 05:59N 54°58' W 005°01'0 0.0
2017-Aug-10 05:29N 54°58' W 005°01'0 0.0
2017-Aug-10 05:00N 54°58' W 005°01'6 9.2
2017-Aug-10 04:23N 55°02' W 005°08'820.7
2017-Aug-10 04:00N 54°58' W 005°21'1020.1
2017-Aug-10 03:30N 54°54' W 005°37'714.5
2017-Aug-10 03:01N 54°51' W 005°48'0 0.1
2017-Aug-10 02:30N 54°51' W 005°48'0 0.0
2017-Aug-10 02:00N 54°51' W 005°48'0 0.0
2017-Aug-10 01:30N 54°51' W 005°48'0 0.0
2017-Aug-10 01:00N 54°51' W 005°48'612.7
2017-Aug-10 00:31N 54°54' W 005°39'918.1
2017-Aug-10 00:01N 54°58' W 005°24'917.9
2017-Aug-09 23:30N 55°02' W 005°10'6 9.4
2017-Aug-09 22:49N 54°58' W 005°01'0 0.0
2017-Aug-09 22:28N 54°58' W 005°01'0 0.0
2017-Aug-09 21:58N 54°58' W 005°01'0 0.0
2017-Aug-09 21:28N 54°58' W 005°01'0 0.1
2017-Aug-09 21:01N 54°58' W 005°01'611.4
2017-Aug-09 20:31N 55°01' W 005°08'816.0
2017-Aug-09 20:00N 54°58' W 005°21'917.6
2017-Aug-09 19:30N 54°54' W 005°35'816.2
2017-Aug-09 19:01N 54°51' W 005°48'0 0.3
2017-Aug-09 18:30N 54°51' W 005°48'0 0.0
2017-Aug-09 18:00N 54°51' W 005°48'0 0.0
2017-Aug-09 17:31N 54°51' W 005°48'612.8
2017-Aug-09 17:00N 54°55' W 005°39'1019.7
2017-Aug-09 16:30N 54°59' W 005°24'816.5
2017-Aug-09 16:00N 55°01' W 005°10'611.8
2017-Aug-09 15:29N 54°58' W 005°01'0 0.0
2017-Aug-09 14:47N 54°58' W 005°01'0 0.2
2017-Aug-09 14:30N 54°58' W 005°01'612.5
2017-Aug-09 14:00N 55°01' W 005°10'1020.6
2017-Aug-09 13:30N 54°56' W 005°25'1019.7
2017-Aug-09 13:00N 54°53' W 005°41'4 7.6
2017-Aug-09 12:25N 54°51' W 005°48'0 0.0
2017-Aug-09 11:55N 54°51' W 005°48'0 0.0
2017-Aug-09 11:29N 54°51' W 005°48'5 9.6
2017-Aug-09 11:00N 54°53' W 005°41'1017.7
2017-Aug-09 10:28N 54°57' W 005°26'818.5
2017-Aug-09 10:00N 55°01' W 005°12'713.2
2017-Aug-09 09:30N 54°58' W 005°02'1 1.5
2017-Aug-09 08:58N 54°58' W 005°01'0 0.0
2017-Aug-09 08:30N 54°58' W 005°01'510.0
2017-Aug-09 08:00N 55°01' W 005°07'816.8
2017-Aug-09 07:31N 54°58' W 005°20'918.9
2017-Aug-09 07:00N 54°54' W 005°35'816.1
2017-Aug-09 06:30N 54°51' W 005°48'0 0.2
2017-Aug-09 06:00N 54°51' W 005°48'0 0.0
2017-Aug-09 05:30N 54°51' W 005°48'0 0.0
2017-Aug-09 05:00N 54°51' W 005°48'4 7.5
2017-Aug-09 04:30N 54°53' W 005°42'917.2
2017-Aug-09 04:00N 54°57' W 005°29'816.6
2017-Aug-09 03:30N 55°00' W 005°16'814.1
2017-Aug-09 02:58N 54°59' W 005°03'2 2.6
2017-Aug-09 02:12N 54°58' W 005°01'0 0.0
2017-Aug-09 02:00N 54°58' W 005°01'0 0.0
2017-Aug-09 01:30N 54°58' W 005°01'0 0.0
2017-Aug-09 01:00N 54°58' W 005°01'4 6.1
2017-Aug-09 00:26N 55°01' W 005°04'717.8
2017-Aug-09 00:00N 54°59' W 005°17'1019.6
2017-Aug-08 23:30N 54°55' W 005°33'918.8
2017-Aug-08 23:00N 54°51' W 005°48'0 0.5
2017-Aug-08 22:29N 54°51' W 005°48'0 0.0
2017-Aug-08 21:56N 54°51' W 005°48'0 0.0
2017-Aug-08 21:29N 54°51' W 005°48'0 0.0
2017-Aug-08 20:59N 54°51' W 005°48'2 5.0
2017-Aug-08 20:30N 54°53' W 005°45'1019.8
2017-Aug-08 20:01N 54°57' W 005°30'1020.6
2017-Aug-08 19:30N 55°01' W 005°13'612.5
2017-Aug-08 19:00N 54°59' W 005°02'1 1.8
2017-Aug-08 18:16N 54°58' W 005°01'0 0.0
2017-Aug-08 17:55N 54°58' W 005°01'0 0.0
2017-Aug-08 17:30N 54°58' W 005°01'5 9.2
2017-Aug-08 16:59N 55°02' W 005°06'919.8
2017-Aug-08 16:31N 54°58' W 005°21'1020.3
2017-Aug-08 16:01N 54°54' W 005°37'713.3
2017-Aug-08 15:30N 54°51' W 005°48'0 0.0
2017-Aug-08 15:00N 54°51' W 005°48'0 0.0
2017-Aug-08 14:30N 54°51' W 005°48'5 9.5
2017-Aug-08 14:00N 54°53' W 005°41'918.3
2017-Aug-08 13:30N 54°57' W 005°27'917.0
2017-Aug-08 13:00N 55°01' W 005°13'714.1
2017-Aug-08 12:30N 54°58' W 005°02'1 1.4
2017-Aug-08 11:56N 54°58' W 005°01'0 0.0
2017-Aug-08 11:30N 54°58' W 005°01'510.0
2017-Aug-08 11:00N 55°01' W 005°07'  
Track history (hours):
 
Tides and Currents Weather Stations Pressure Air Temp Water Temp Dewpoint Dewpoint Depression Visibility Wind Speed Wind Dir Waves Ship Positions

European Highlander

Operator: P&O Irish Sea Ltd

Last reported at 2017-Aug-18 10:30 UTC. Time now 2017-Aug-18 10:51 UTC.
Position N 54°59' W 005°19'.

Length 161 m; draft 5.4 m.

Type: Passenger vessel. MMSI: 311404000.

Date/timePositionNaut miles runAvg speedWind from/ knotsBaromVisibWave heightAir tempDewpointWater temp
2017-Aug-18 10:30N 54°59' W 005°19'917.7
2017-Aug-18 10:00N 54°55' W 005°33'917.3
2017-Aug-18 09:30N 54°52' W 005°47'1 1.6
2017-Aug-18 08:57N 54°51' W 005°48'0 0.0
2017-Aug-18 08:27N 54°51' W 005°48'4 8.0
2017-Aug-18 08:01N 54°53' W 005°43'917.3
2017-Aug-18 07:30N 54°57' W 005°29'917.1
2017-Aug-18 07:00N 55°00' W 005°16'713.6
2017-Aug-18 06:27N 54°59' W 005°03'2 3.8
2017-Aug-18 06:00N 54°58' W 005°01'0 0.0
2017-Aug-18 05:30N 54°58' W 005°01'0 0.0
2017-Aug-18 05:00N 54°58' W 005°01'5 8.1
2017-Aug-18 04:23N 55°02' W 005°06'616.9
2017-Aug-18 04:01N 54°59' W 005°17'918.2
2017-Aug-18 03:31N 54°55' W 005°31'918.6
2017-Aug-18 03:00N 54°52' W 005°47'1 2.6
2017-Aug-18 02:27N 54°51' W 005°48'0 0.0
2017-Aug-18 02:00N 54°51' W 005°48'0 0.0
2017-Aug-18 01:30N 54°51' W 005°48'0 0.0
2017-Aug-18 01:01N 54°51' W 005°48'611.3
2017-Aug-18 00:31N 54°54' W 005°40'816.8
2017-Aug-18 00:01N 54°58' W 005°27'816.7
2017-Aug-17 23:31N 55°01' W 005°13'714.3
2017-Aug-17 23:01N 54°58' W 005°02'1 1.5
2017-Aug-17 22:26N 54°58' W 005°01'0 0.0
2017-Aug-17 21:56N 54°58' W 005°01'0 0.0
2017-Aug-17 21:26N 54°58' W 005°01'0 0.0
2017-Aug-17 20:55N 54°58' W 005°01'5 9.9
2017-Aug-17 20:25N 55°02' W 005°06'818.7
2017-Aug-17 20:00N 54°60' W 005°19'1019.8
2017-Aug-17 19:30N 54°55' W 005°35'916.2
2017-Aug-17 18:59N 54°51' W 005°48'0 0.4
2017-Aug-17 18:30N 54°51' W 005°48'0 0.0
2017-Aug-17 18:00N 54°51' W 005°48'0 0.0
2017-Aug-17 17:30N 54°51' W 005°48'611.9
2017-Aug-17 17:00N 54°54' W 005°39'1019.9
2017-Aug-17 16:30N 54°58' W 005°24'1020.2
2017-Aug-17 16:00N 55°02' W 005°07'510.2
2017-Aug-17 15:30N 54°58' W 005°01'0 0.0
2017-Aug-17 15:00N 54°58' W 005°01'0 0.0
2017-Aug-17 14:30N 54°58' W 005°01'4 7.6
2017-Aug-17 14:01N 55°01' W 005°05'918.4
2017-Aug-17 13:31N 54°58' W 005°20'1020.7
2017-Aug-17 13:01N 54°54' W 005°36'714.4
2017-Aug-17 12:30N 54°51' W 005°48'0 0.0
2017-Aug-17 11:53N 54°51' W 005°48'0 0.0
2017-Aug-17 11:30N 54°51' W 005°48'510.8
2017-Aug-17 11:00N 54°54' W 005°40'917.7
2017-Aug-17 10:30N 54°58' W 005°26'917.0
2017-Aug-17 10:00N 55°01' W 005°12'713.9
2017-Aug-17 09:30N 54°58' W 005°02'1 0.9
2017-Aug-17 08:49N 54°58' W 005°01'0 0.0
2017-Aug-17 08:30N 54°58' W 005°01'5 9.5
2017-Aug-17 07:59N 55°02' W 005°06'817.6
2017-Aug-17 07:30N 54°58' W 005°20'917.1
2017-Aug-17 07:00N 54°54' W 005°33'917.3
2017-Aug-17 06:31N 54°52' W 005°47'1 1.9
2017-Aug-17 05:59N 54°51' W 005°48'0 0.0
2017-Aug-17 05:29N 54°51' W 005°48'0 0.0
2017-Aug-17 05:01N 54°51' W 005°48'612.4
2017-Aug-17 04:30N 54°54' W 005°39'816.9
2017-Aug-17 04:00N 54°58' W 005°25'917.5
2017-Aug-17 03:30N 55°01' W 005°11'713.2
2017-Aug-17 03:00N 54°58' W 005°01'0 0.7
2017-Aug-17 02:30N 54°58' W 005°01'0 0.0
2017-Aug-17 02:00N 54°58' W 005°01'0 0.0
2017-Aug-17 01:30N 54°58' W 005°01'0 0.0
2017-Aug-17 01:00N 54°58' W 005°01'5 7.7
2017-Aug-17 00:22N 55°01' W 005°06'617.5
2017-Aug-17 00:00N 54°59' W 005°16'1020.0
2017-Aug-16 23:30N 54°55' W 005°32'919.1
2017-Aug-16 23:01N 54°52' W 005°48'1 1.4
2017-Aug-16 22:30N 54°51' W 005°48'0 0.0
2017-Aug-16 22:00N 54°51' W 005°48'0 0.0
2017-Aug-16 21:30N 54°51' W 005°48'0 0.0
2017-Aug-16 21:00N 54°51' W 005°48'4 8.5
2017-Aug-16 20:30N 54°53' W 005°42'1019.6
2017-Aug-16 20:01N 54°58' W 005°27'918.5
2017-Aug-16 19:31N 55°01' W 005°12'713.0
2017-Aug-16 19:00N 54°58' W 005°02'1 1.6
2017-Aug-16 18:28N 54°58' W 005°01'0 0.0
2017-Aug-16 17:55N 54°58' W 005°01'0 0.0
2017-Aug-16 17:30N 54°58' W 005°01'5 9.9
2017-Aug-16 17:00N 55°02' W 005°06'1019.7
2017-Aug-16 16:30N 54°57' W 005°21'1019.8
2017-Aug-16 16:00N 54°54' W 005°37'713.3
2017-Aug-16 15:30N 54°51' W 005°48'0 0.0
2017-Aug-16 14:53N 54°51' W 005°48'0 0.0
2017-Aug-16 14:23N 54°51' W 005°48'3 7.8
2017-Aug-16 14:00N 54°53' W 005°44'1019.2
2017-Aug-16 13:31N 54°57' W 005°29'1019.5
2017-Aug-16 13:00N 55°01' W 005°13'713.9
2017-Aug-16 12:30N 54°58' W 005°02'1 1.8
2017-Aug-16 12:00N 54°58' W 005°01'0 0.0
2017-Aug-16 11:30N 54°58' W 005°01'5 8.7
2017-Aug-16 10:56N 55°02' W 005°06'921.2
2017-Aug-16 10:30N 54°58' W 005°21'1020.6
2017-Aug-16 10:00N 54°53' W 005°37'713.4
2017-Aug-16 09:30N 54°51' W 005°48'0 0.0
2017-Aug-16 09:00N 54°51' W 005°48'0 0.0
2017-Aug-16 08:30N 54°51' W 005°48'4 8.2
2017-Aug-16 08:01N 54°53' W 005°42'917.5
2017-Aug-16 07:30N 54°57' W 005°29'917.2
2017-Aug-16 07:01N 55°01' W 005°15'714.1
2017-Aug-16 06:31N 54°59' W 005°03'2 3.5
2017-Aug-16 05:58N 54°58' W 005°01'0 0.0
2017-Aug-16 05:28N 54°58' W 005°01'0 0.0
2017-Aug-16 05:01N 54°58' W 005°01'5 9.8
2017-Aug-16 04:30N 55°02' W 005°06'815.6
2017-Aug-16 04:01N 54°59' W 005°19'917.5
2017-Aug-16 03:31N 54°55' W 005°32'917.9
2017-Aug-16 03:00N 54°52' W 005°47'1 2.2
2017-Aug-16 02:29N 54°51' W 005°48'0 0.0
2017-Aug-16 01:59N 54°51' W 005°48'0 0.0
2017-Aug-16 01:29N 54°51' W 005°48'0 0.0
2017-Aug-16 01:00N 54°51' W 005°48'5 9.4
2017-Aug-16 00:30N 54°53' W 005°41'816.7
2017-Aug-16 00:00N 54°57' W 005°28'816.7
2017-Aug-15 23:30N 55°01' W 005°15'713.9
2017-Aug-15 23:00N 54°59' W 005°03'2 3.8
2017-Aug-15 22:28N 54°58' W 005°01'0 0.0
2017-Aug-15 21:58N 54°58' W 005°01'0 0.0
2017-Aug-15 21:28N 54°58' W 005°01'0 0.0
2017-Aug-15 21:00N 54°58' W 005°01'5 9.4
2017-Aug-15 20:28N 55°02' W 005°07'817.5
2017-Aug-15 20:00N 54°59' W 005°20'917.4
2017-Aug-15 19:31N 54°55' W 005°33'816.8
2017-Aug-15 19:00N 54°52' W 005°47'1 2.3
2017-Aug-15 18:30N 54°51' W 005°48'0 0.0
2017-Aug-15 18:00N 54°51' W 005°48'0 0.0
2017-Aug-15 17:30N 54°51' W 005°48'4 7.6
2017-Aug-15 17:01N 54°53' W 005°43'918.3
2017-Aug-15 16:31N 54°57' W 005°28'918.3
2017-Aug-15 16:01N 55°01' W 005°14'713.9
2017-Aug-15 15:31N 54°59' W 005°02'1 1.9
2017-Aug-15 14:55N 54°58' W 005°01'0 0.0
2017-Aug-15 14:25N 54°58' W 005°01'510.0
2017-Aug-15 13:55N 55°02' W 005°06'819.3
2017-Aug-15 13:30N 54°58' W 005°19'1020.7
2017-Aug-15 13:00N 54°54' W 005°35'815.6
2017-Aug-15 12:31N 54°51' W 005°48'0 0.2
2017-Aug-15 11:56N 54°51' W 005°48'0 0.0
2017-Aug-15 11:30N 54°51' W 005°48'611.3
2017-Aug-15 11:00N 54°54' W 005°40'917.2
2017-Aug-15 10:30N 54°58' W 005°26'917.4
2017-Aug-15 10:00N 55°01' W 005°12'713.5
2017-Aug-15 09:30N 54°58' W 005°02'1 1.5
2017-Aug-15 09:00N 54°58' W 005°01'0 0.0
2017-Aug-15 08:30N 54°58' W 005°01'5 8.1
2017-Aug-15 07:53N 55°02' W 005°07'717.9
2017-Aug-15 07:30N 54°59' W 005°18'918.0
2017-Aug-15 07:00N 54°56' W 005°32'917.4
2017-Aug-15 06:29N 54°52' W 005°47'2 3.1
2017-Aug-15 06:00N 54°51' W 005°48'0 0.0
2017-Aug-15 05:30N 54°51' W 005°48'0 0.0
2017-Aug-15 05:01N 54°51' W 005°48'612.0
2017-Aug-15 04:30N 54°54' W 005°39'1020.2
2017-Aug-15 04:00N 54°59' W 005°24'918.6
2017-Aug-15 03:30N 55°02' W 005°08'610.0
2017-Aug-15 02:56N 54°58' W 005°01'0 0.0
2017-Aug-15 02:20N 54°58' W 005°01'0 0.0
2017-Aug-15 01:50N 54°58' W 005°01'0 0.0
2017-Aug-15 01:29N 54°58' W 005°01'0 0.0
2017-Aug-15 00:59N 54°58' W 005°01'5 9.0
2017-Aug-15 00:26N 55°02' W 005°06'819.1
2017-Aug-15 00:00N 54°59' W 005°20'1020.3
2017-Aug-14 23:30N 54°54' W 005°36'813.3
2017-Aug-14 22:56N 54°51' W 005°48'0 0.0
2017-Aug-14 22:29N 54°51' W 005°48'0 0.0
2017-Aug-14 21:56N 54°51' W 005°48'0 0.0
2017-Aug-14 21:29N 54°51' W 005°48'0 0.0
2017-Aug-14 20:59N 54°51' W 005°48'4 8.8
2017-Aug-14 20:31N 54°53' W 005°42'917.6
2017-Aug-14 20:01N 54°57' W 005°28'815.6
2017-Aug-14 19:31N 55°00' W 005°16'813.0
2017-Aug-14 18:56N 54°59' W 005°03'2 4.3
2017-Aug-14 18:30N 54°58' W 005°01'0 0.0
2017-Aug-14 18:00N 54°58' W 005°01'0 0.0
2017-Aug-14 17:30N 54°58' W 005°01'5 8.4
2017-Aug-14 16:55N 55°02' W 005°06'819.9
2017-Aug-14 16:30N 54°60' W 005°20'1019.5
2017-Aug-14 16:01N 54°56' W 005°36'816.7
2017-Aug-14 15:30N 54°51' W 005°48'0 0.4
2017-Aug-14 14:55N 54°51' W 005°48'0 0.0
2017-Aug-14 14:25N 54°51' W 005°48'511.5
2017-Aug-14 14:00N 54°54' W 005°41'1019.6
2017-Aug-14 13:30N 54°58' W 005°26'1020.0
2017-Aug-14 13:00N 55°02' W 005°10'612.6
2017-Aug-14 12:30N 54°58' W 005°01'0 0.0
2017-Aug-14 12:00N 54°58' W 005°01'0 0.1
2017-Aug-14 11:31N 54°58' W 005°01'611.4
2017-Aug-14 11:00N 55°01' W 005°09'817.1
2017-Aug-14 10:31N 54°57' W 005°22'917.9
2017-Aug-14 10:00N 54°54' W 005°36'714.8
2017-Aug-14 09:30N 54°51' W 005°48'0 0.1
2017-Aug-14 08:59N 54°51' W 005°48'0 0.0
2017-Aug-14 08:31N 54°51' W 005°48'612.6
2017-Aug-14 08:00N 54°55' W 005°39'1019.7
2017-Aug-14 07:30N 54°59' W 005°23'1215.9
2017-Aug-14 06:46N 54°59' W 005°03'2 5.7
2017-Aug-14 06:28N 54°58' W 005°01'0 0.0
2017-Aug-14 05:58N 54°58' W 005°01'0 0.0
2017-Aug-14 05:28N 54°58' W 005°01'0 0.0
2017-Aug-14 05:00N 54°58' W 005°01'5 9.2
2017-Aug-14 04:28N 55°02' W 005°06'919.9
2017-Aug-14 04:01N 54°58' W 005°21'1019.9
2017-Aug-14 03:31N 54°54' W 005°37'714.1
2017-Aug-14 03:01N 54°51' W 005°48'0 0.1
2017-Aug-14 02:28N 54°51' W 005°48'0 0.0
2017-Aug-14 01:58N 54°51' W 005°48'0 0.0
2017-Aug-14 01:28N 54°51' W 005°48'0 0.0
2017-Aug-14 00:58N 54°51' W 005°48'0 0.0
2017-Aug-14 00:25N 54°51' W 005°48'0 0.1
2017-Aug-14 00:00N 54°51' W 005°48'714.1
2017-Aug-13 23:30N 54°54' W 005°37'917.1
2017-Aug-13 23:00N 54°58' W 005°24'917.9
2017-Aug-13 22:30N 55°02' W 005°09'612.8
2017-Aug-13 22:00N 54°58' W 005°01'0 0.0
2017-Aug-13 21:20N 54°58' W 005°01'0 0.0
2017-Aug-13 20:59N 54°58' W 005°01'6 8.6
2017-Aug-13 20:21N 55°01' W 005°08'719.4
2017-Aug-13 20:01N 54°59' W 005°19'1020.0
2017-Aug-13 19:31N 54°55' W 005°34'917.2
2017-Aug-13 19:00N 54°51' W 005°48'0 0.2
2017-Aug-13 18:30N 54°51' W 005°48'0 0.0
2017-Aug-13 18:00N 54°51' W 005°48'0 0.0
2017-Aug-13 17:30N 54°51' W 005°48'612.6
2017-Aug-13 17:01N 54°54' W 005°39'918.3
2017-Aug-13 16:31N 54°59' W 005°25'917.1
2017-Aug-13 16:01N 55°01' W 005°11'7 7.5
2017-Aug-13 15:07N 54°58' W 005°01'0 0.0
2017-Aug-13 14:43N 54°58' W 005°01'0 0.1
2017-Aug-13 14:25N 54°58' W 005°01'511.6
2017-Aug-13 13:59N 55°02' W 005°07'919.2
2017-Aug-13 13:30N 54°57' W 005°21'1020.4
2017-Aug-13 13:00N 54°54' W 005°38'712.4
2017-Aug-13 12:29N 54°51' W 005°48'0 0.0
2017-Aug-13 11:59N 54°51' W 005°48'0 0.0
2017-Aug-13 11:31N 54°51' W 005°48'612.7
2017-Aug-13 11:00N 54°54' W 005°38'1019.7
2017-Aug-13 10:30N 54°59' W 005°23'1020.2
2017-Aug-13 10:00N 55°02' W 005°06'5 8.7
2017-Aug-13 09:25N 54°58' W 005°01'0 0.0
2017-Aug-13 08:55N 54°58' W 005°01'0 0.0
2017-Aug-13 08:30N 54°58' W 005°01'3 6.6
2017-Aug-13 08:00N 55°00' W 005°04'815.8
2017-Aug-13 07:30N 54°59' W 005°18'1020.6
2017-Aug-13 07:00N 54°54' W 005°34'917.1
2017-Aug-13 06:30N 54°51' W 005°48'0 0.6
2017-Aug-13 06:00N 54°51' W 005°48'0 0.0
2017-Aug-13 05:30N 54°51' W 005°48'0 0.0
2017-Aug-13 05:00N 54°51' W 005°48'0 0.0
2017-Aug-13 04:30N 54°51' W 005°48'0 0.0
2017-Aug-13 04:00N 54°51' W 005°48'0 0.0
2017-Aug-13 03:30N 54°51' W 005°48'0 0.0
2017-Aug-13 03:00N 54°51' W 005°48'0 0.0
2017-Aug-13 02:30N 54°51' W 005°48'0 0.0
2017-Aug-13 02:00N 54°51' W 005°48'0 0.0
2017-Aug-13 01:27N 54°51' W 005°48'0 0.0
2017-Aug-13 00:57N 54°51' W 005°48'0 0.0
2017-Aug-13 00:30N 54°51' W 005°48'0 0.0
2017-Aug-13 00:00N 54°51' W 005°48'0 0.0
2017-Aug-12 23:30N 54°51' W 005°48'0 0.0
2017-Aug-12 23:00N 54°51' W 005°48'0 0.0
2017-Aug-12 22:30N 54°51' W 005°48'0 0.0
2017-Aug-12 22:00N 54°51' W 005°48'0 0.0
2017-Aug-12 21:30N 54°51' W 005°48'0 0.0
2017-Aug-12 21:00N 54°51' W 005°48'5 9.7
2017-Aug-12 20:31N 54°53' W 005°41'816.5
2017-Aug-12 20:01N 54°57' W 005°28'816.0
2017-Aug-12 19:31N 55°00' W 005°15'713.4
2017-Aug-12 18:59N 54°59' W 005°03'2 3.3
2017-Aug-12 18:23N 54°58' W 005°01'0 0.0
2017-Aug-12 17:59N 54°58' W 005°01'0 0.0
2017-Aug-12 17:30N 54°58' W 005°01'5 9.3
2017-Aug-12 16:59N 55°02' W 005°06'918.3
2017-Aug-12 16:30N 54°58' W 005°20'917.7
2017-Aug-12 16:00N 54°55' W 005°35'816.4
2017-Aug-12 15:30N 54°51' W 005°48'1 1.1
2017-Aug-12 15:00N 54°51' W 005°48'0 0.0
2017-Aug-12 14:30N 54°51' W 005°48'5 9.9
2017-Aug-12 14:00N 54°54' W 005°41'917.5
2017-Aug-12 13:30N 54°57' W 005°27'816.9
2017-Aug-12 13:00N 55°01' W 005°14'713.3
2017-Aug-12 12:30N 54°59' W 005°03'1 2.8
2017-Aug-12 12:00N 54°58' W 005°01'0 0.0
2017-Aug-12 11:30N 54°58' W 005°01'510.4
2017-Aug-12 11:00N 55°02' W 005°07'816.4
2017-Aug-12 10:30N 54°58' W 005°20'918.0
2017-Aug-12 10:01N 54°54' W 005°34'816.8
2017-Aug-12 09:30N 54°51' W 005°48'0 0.4
2017-Aug-12 08:55N 54°51' W 005°48'0 0.0
2017-Aug-12 08:30N 54°51' W 005°48'612.4
2017-Aug-12 08:01N 54°54' W 005°39'917.1
2017-Aug-12 07:31N 54°58' W 005°25'917.0
2017-Aug-12 07:00N 55°01' W 005°12'713.4
2017-Aug-12 06:30N 54°58' W 005°01'0 0.8
2017-Aug-12 06:01N 54°58' W 005°01'0 0.0
2017-Aug-12 05:31N 54°58' W 005°01'0 0.0
2017-Aug-12 05:00N 54°58' W 005°01'5 8.5
2017-Aug-12 04:25N 55°02' W 005°06'819.8
2017-Aug-12 04:00N 54°59' W 005°20'1020.3
2017-Aug-12 03:30N 54°55' W 005°36'815.4
2017-Aug-12 03:00N 54°51' W 005°48'0 0.2
2017-Aug-12 02:30N 54°51' W 005°48'0 0.0
2017-Aug-12 02:00N 54°51' W 005°48'0 0.0
2017-Aug-12 01:30N 54°51' W 005°48'0 0.0
2017-Aug-12 01:00N 54°51' W 005°48'611.0
2017-Aug-12 00:30N 54°54' W 005°40'1019.2
2017-Aug-12 00:00N 54°58' W 005°25'1019.4
2017-Aug-11 23:30N 55°02' W 005°09'612.2
2017-Aug-11 23:01N 54°58' W 005°01'0 0.0
2017-Aug-11 22:29N 54°58' W 005°01'0 0.0
2017-Aug-11 21:59N 54°58' W 005°01'0 0.0
2017-Aug-11 21:29N 54°58' W 005°01'0 0.0
2017-Aug-11 20:59N 54°58' W 005°01'5 9.4
2017-Aug-11 20:27N 55°01' W 005°07'716.1
2017-Aug-11 20:00N 54°59' W 005°18'917.7
2017-Aug-11 19:30N 54°55' W 005°32'917.9
2017-Aug-11 19:00N 54°52' W 005°47'1 2.7
2017-Aug-11 18:30N 54°51' W 005°48'0 0.0
2017-Aug-11 18:00N 54°51' W 005°48'0 0.0
2017-Aug-11 17:30N 54°51' W 005°48'4 7.5
2017-Aug-11 17:00N 54°53' W 005°43'1020.7
2017-Aug-11 16:30N 54°58' W 005°26'1019.6
2017-Aug-11 16:00N 55°01' W 005°11'712.8
2017-Aug-11 15:29N 54°58' W 005°01'0 0.0
2017-Aug-11 15:00N 54°58' W 005°01'5 4.6
2017-Aug-11 13:55N 55°02' W 005°06'820.3
2017-Aug-11 13:30N 54°58' W 005°20'1020.3
2017-Aug-11 13:00N 54°54' W 005°36'815.1
2017-Aug-11 12:30N 54°51' W 005°48'0 0.0
2017-Aug-11 12:00N 54°51' W 005°48'0 0.4
2017-Aug-11 11:31N 54°51' W 005°48'917.4
2017-Aug-11 11:01N 54°55' W 005°35'1019.1
2017-Aug-11 10:31N 54°59' W 005°19'915.2
2017-Aug-11 09:53N 54°59' W 005°03'2 5.0
2017-Aug-11 09:30N 54°58' W 005°01'0 0.0
2017-Aug-11 09:01N 54°58' W 005°01'0 0.0
2017-Aug-11 08:31N 54°58' W 005°01'5 9.4
2017-Aug-11 07:59N 55°02' W 005°07'816.9
2017-Aug-11 07:30N 54°58' W 005°19'918.1
2017-Aug-11 07:00N 54°54' W 005°33'917.2
2017-Aug-11 06:30N 54°52' W 005°48'1 1.5
2017-Aug-11 05:58N 54°51' W 005°48'0 0.0
2017-Aug-11 05:28N 54°51' W 005°48'0 0.0
2017-Aug-11 05:00N 54°51' W 005°48'4 8.9
2017-Aug-11 04:31N 54°53' W 005°42'1020.0
2017-Aug-11 04:00N 54°58' W 005°26'918.8
2017-Aug-11 03:31N 55°01' W 005°11'713.5
2017-Aug-11 03:00N 54°58' W 005°01'0 0.1
2017-Aug-11 02:30N 54°58' W 005°01'0 0.0
2017-Aug-11 02:00N 54°58' W 005°01'0 0.0
2017-Aug-11 01:27N 54°58' W 005°01'0 0.1
2017-Aug-11 01:00N 54°58' W 005°01'612.1
2017-Aug-11 00:30N 55°01' W 005°10'917.7
2017-Aug-11 00:00N 54°57' W 005°23'918.2
2017-Aug-10 23:30N 54°53' W 005°38'612.9
2017-Aug-10 23:00N 54°51' W 005°48'0 0.0
2017-Aug-10 22:30N 54°51' W 005°48'0 0.0
2017-Aug-10 22:00N 54°51' W 005°48'0 0.0
2017-Aug-10 21:30N 54°51' W 005°48'0 0.0
2017-Aug-10 21:00N 54°51' W 005°48'510.9
2017-Aug-10 20:30N 54°54' W 005°40'816.1
2017-Aug-10 20:00N 54°57' W 005°27'816.5
2017-Aug-10 19:30N 55°01' W 005°14'713.1
2017-Aug-10 19:00N 54°59' W 005°03'2 3.9
2017-Aug-10 18:30N 54°58' W 005°01'0 0.0
2017-Aug-10 18:00N 54°58' W 005°01'0 0.0
2017-Aug-10 17:30N 54°58' W 005°01'5 8.9
2017-Aug-10 16:57N 55°02' W 005°06'920.4
2017-Aug-10 16:30N 54°58' W 005°21'1020.0
2017-Aug-10 16:00N 54°54' W 005°37'714.2
2017-Aug-10 15:30N 54°51' W 005°48'0 0.1
2017-Aug-10 15:00N 54°51' W 005°48'0 0.0
2017-Aug-10 14:31N 54°51' W 005°48'1414.4
2017-Aug-10 13:30N 54°58' W 005°26'918.0
2017-Aug-10 13:00N 55°01' W 005°11'713.6
2017-Aug-10 12:30N 54°58' W 005°01'0 0.0
2017-Aug-10 11:56N 54°58' W 005°01'0 0.0
2017-Aug-10 11:30N 54°58' W 005°01'611.5
2017-Aug-10 11:00N 55°01' W 005°08'1019.7
2017-Aug-10 10:30N 54°57' W 005°23'1121.2
2017-Aug-10 10:00N 54°53' W 005°40'5 9.4
2017-Aug-10 09:30N 54°51' W 005°48'0 0.0
2017-Aug-10 09:00N 54°51' W 005°48'0 0.1
2017-Aug-10 08:31N 54°51' W 005°48'714.6
2017-Aug-10 08:00N 54°55' W 005°37'816.2
2017-Aug-10 07:30N 54°58' W 005°24'917.0
2017-Aug-10 07:00N 55°01' W 005°11'612.5
2017-Aug-10 06:30N 54°58' W 005°01'0 0.5
2017-Aug-10 05:59N 54°58' W 005°01'0 0.0
2017-Aug-10 05:29N 54°58' W 005°01'0 0.0
2017-Aug-10 05:00N 54°58' W 005°01'6 9.2
2017-Aug-10 04:23N 55°02' W 005°08'820.7
2017-Aug-10 04:00N 54°58' W 005°21'1020.1
2017-Aug-10 03:30N 54°54' W 005°37'714.5
2017-Aug-10 03:01N 54°51' W 005°48'0 0.1
2017-Aug-10 02:30N 54°51' W 005°48'0 0.0
2017-Aug-10 02:00N 54°51' W 005°48'0 0.0
2017-Aug-10 01:30N 54°51' W 005°48'0 0.0
2017-Aug-10 01:00N 54°51' W 005°48'612.7
2017-Aug-10 00:31N 54°54' W 005°39'918.1
2017-Aug-10 00:01N 54°58' W 005°24'917.9
2017-Aug-09 23:30N 55°02' W 005°10'6 9.4
2017-Aug-09 22:49N 54°58' W 005°01'0 0.0
2017-Aug-09 22:28N 54°58' W 005°01'0 0.0
2017-Aug-09 21:58N 54°58' W 005°01'0 0.0
2017-Aug-09 21:28N 54°58' W 005°01'0 0.1
2017-Aug-09 21:01N 54°58' W 005°01'611.4
2017-Aug-09 20:31N 55°01' W 005°08'816.0
2017-Aug-09 20:00N 54°58' W 005°21'917.6
2017-Aug-09 19:30N 54°54' W 005°35'816.2
2017-Aug-09 19:01N 54°51' W 005°48'0 0.3
2017-Aug-09 18:30N 54°51' W 005°48'0 0.0
2017-Aug-09 18:00N 54°51' W 005°48'0 0.0
2017-Aug-09 17:31N 54°51' W 005°48'612.8
2017-Aug-09 17:00N 54°55' W 005°39'1019.7
2017-Aug-09 16:30N 54°59' W 005°24'816.5
2017-Aug-09 16:00N 55°01' W 005°10'611.8
2017-Aug-09 15:29N 54°58' W 005°01'0 0.0
2017-Aug-09 14:47N 54°58' W 005°01'0 0.2
2017-Aug-09 14:30N 54°58' W 005°01'612.5
2017-Aug-09 14:00N 55°01' W 005°10'1020.6
2017-Aug-09 13:30N 54°56' W 005°25'1019.7
2017-Aug-09 13:00N 54°53' W 005°41'4 7.6
2017-Aug-09 12:25N 54°51' W 005°48'0 0.0
2017-Aug-09 11:55N 54°51' W 005°48'0 0.0
2017-Aug-09 11:29N 54°51' W 005°48'5 9.6
2017-Aug-09 11:00N 54°53' W 005°41'1017.7
2017-Aug-09 10:28N 54°57' W 005°26'818.5
2017-Aug-09 10:00N 55°01' W 005°12'713.2
2017-Aug-09 09:30N 54°58' W 005°02'1 1.5
2017-Aug-09 08:58N 54°58' W 005°01'0 0.0
2017-Aug-09 08:30N 54°58' W 005°01'510.0
2017-Aug-09 08:00N 55°01' W 005°07'816.8
2017-Aug-09 07:31N 54°58' W 005°20'918.9
2017-Aug-09 07:00N 54°54' W 005°35'816.1
2017-Aug-09 06:30N 54°51' W 005°48'0 0.2
2017-Aug-09 06:00N 54°51' W 005°48'0 0.0
2017-Aug-09 05:30N 54°51' W 005°48'0 0.0
2017-Aug-09 05:00N 54°51' W 005°48'4 7.5
2017-Aug-09 04:30N 54°53' W 005°42'917.2
2017-Aug-09 04:00N 54°57' W 005°29'816.6
2017-Aug-09 03:30N 55°00' W 005°16'814.1
2017-Aug-09 02:58N 54°59' W 005°03'2 2.6
2017-Aug-09 02:12N 54°58' W 005°01'0 0.0
2017-Aug-09 02:00N 54°58' W 005°01'0 0.0
2017-Aug-09 01:30N 54°58' W 005°01'0 0.0
2017-Aug-09 01:00N 54°58' W 005°01'4 6.1
2017-Aug-09 00:26N 55°01' W 005°04'717.8
2017-Aug-09 00:00N 54°59' W 005°17'1019.6
2017-Aug-08 23:30N 54°55' W 005°33'918.8
2017-Aug-08 23:00N 54°51' W 005°48'0 0.5
2017-Aug-08 22:29N 54°51' W 005°48'0 0.0
2017-Aug-08 21:56N 54°51' W 005°48'0 0.0
2017-Aug-08 21:29N 54°51' W 005°48'0 0.0
2017-Aug-08 20:59N 54°51' W 005°48'2 5.0
2017-Aug-08 20:30N 54°53' W 005°45'1019.8
2017-Aug-08 20:01N 54°57' W 005°30'1020.6
2017-Aug-08 19:30N 55°01' W 005°13'612.5
2017-Aug-08 19:00N 54°59' W 005°02'1 1.8
2017-Aug-08 18:16N 54°58' W 005°01'0 0.0
2017-Aug-08 17:55N 54°58' W 005°01'0 0.0
2017-Aug-08 17:30N 54°58' W 005°01'5 9.2
2017-Aug-08 16:59N 55°02' W 005°06'919.8
2017-Aug-08 16:31N 54°58' W 005°21'1020.3
2017-Aug-08 16:01N 54°54' W 005°37'713.3
2017-Aug-08 15:30N 54°51' W 005°48'0 0.0
2017-Aug-08 15:00N 54°51' W 005°48'0 0.0
2017-Aug-08 14:30N 54°51' W 005°48'5 9.5
2017-Aug-08 14:00N 54°53' W 005°41'918.3
2017-Aug-08 13:30N 54°57' W 005°27'917.0
2017-Aug-08 13:00N 55°01' W 005°13'714.1
2017-Aug-08 12:30N 54°58' W 005°02'1 1.4
2017-Aug-08 11:56N 54°58' W 005°01'0 0.0
2017-Aug-08 11:30N 54°58' W 005°01'510.0
2017-Aug-08 11:00N 55°01' W 005°07'  

Dump ship's entire track history